This is the latest recevied weather packets stored in our database for station/object K9CMP-13. If no packets are shown the sender has not sent any weather packets the latest 10 day(s).
| Time | Temp. | Humidity | Pressure | Rain* | Wind** | Luminosity | Snow |
|---|---|---|---|---|---|---|---|
| 1787740742 | 17.22° C | 98% | 1011.5 hPa | 0 mm | - | - | - |
| 1787737142 | 17.22° C | 97% | 1011.5 hPa | 0 mm | - | - | - |
| 1787735642 | 17.22° C | 96% | 1011.5 hPa | 0 mm | - | - | - |
| 1787735042 | 17.22° C | 96% | 1011.5 hPa | 0 mm | - | - | - |
| 1787734142 | 17.22° C | 95% | 1011.5 hPa | 0 mm | - | - | - |
| 1787732342 | 17.78° C | 94% | 1011.5 hPa | 0 mm | - | - | - |
| 1787731441 | 17.78° C | 94% | 1011.5 hPa | 0 mm | - | - | - |
| 1787730541 | 17.78° C | 93% | 1011.5 hPa | 0 mm | - | - | - |
| 1787728742 | 18.33° C | 91% | 1011.5 hPa | 0 mm | - | - | - |
| 1787727842 | 18.89° C | 89% | 1011.9 hPa | 0 mm | - | - | - |
| 1787727242 | 18.89° C | 88% | 1011.9 hPa | 0 mm | - | - | - |
| 1787725742 | 20° C | 86% | 1011.9 hPa | 0 mm | - | - | - |
| 1787724842 | 20° C | 84% | 1011.9 hPa | 0 mm | - | - | - |
| 1787722442 | 20° C | 83% | 1012.5 hPa | 0 mm | - | - | - |
| 1787719742 | 19.44° C | 85% | 1012.5 hPa | 0 mm | - | - | - |
| 1787717942 | 20° C | 84% | 1013.2 hPa | 0 mm | - | - | - |
| 1787717342 | 20° C | 84% | 1013.2 hPa | 0 mm | - | - | - |
| 1787713142 | 20° C | 86% | 1013.9 hPa | 0 mm | - | - | - |
| 1787712542 | 20° C | 87% | 1013.9 hPa | 0 mm | - | - | - |
| 1787709842 | 19.44° C | 91% | 1014.9 hPa | 0 mm | - | - | - |
| 1787709242 | 19.44° C | 91% | 1014.6 hPa | 0 mm | - | - | - |
| 1787708342 | 20° C | 90% | 1014.6 hPa | 0 mm | - | - | - |
| 1787707442 | 20.56° C | 86% | 1014.6 hPa | 0 mm | - | - | - |
| 1787705942 | 22.78° C | 74% | 1014.2 hPa | 0 mm | - | - | - |
| 1787705042 | 22.78° C | 73% | 1014.2 hPa | 0 mm | - | - | - |
* Rain latest hour (hover to see other rain measurements)
** Current wind speed in m/s (hover to see current wind gust speed)